sensor_id;sensor_type;location;lat;lon;timestamp;P1;durP1;ratioP1;P2;durP2;ratioP2
23015;SDS011;11674;52.428;13.584;2023-12-22T00:01:50;8.80;;;2.45;;
23015;SDS011;11674;52.428;13.584;2023-12-22T00:06:57;7.95;;;2.38;;
23015;SDS011;11674;52.428;13.584;2023-12-22T00:12:04;8.52;;;1.92;;
23015;SDS011;11674;52.428;13.584;2023-12-22T00:17:11;8.23;;;2.05;;
23015;SDS011;11674;52.428;13.584;2023-12-22T00:22:18;7.40;;;1.88;;
23015;SDS011;11674;52.428;13.584;2023-12-22T00:27:25;10.57;;;2.30;;
23015;SDS011;11674;52.428;13.584;2023-12-22T00:32:32;7.57;;;1.80;;
23015;SDS011;11674;52.428;13.584;2023-12-22T00:37:39;12.98;;;2.72;;
23015;SDS011;11674;52.428;13.584;2023-12-22T00:42:46;12.63;;;2.85;;
23015;SDS011;11674;52.428;13.584;2023-12-22T00:47:53;17.58;;;2.65;;
23015;SDS011;11674;52.428;13.584;2023-12-22T00:53:00;15.90;;;3.78;;
23015;SDS011;11674;52.428;13.584;2023-12-22T00:58:07;13.02;;;2.53;;
23015;SDS011;11674;52.428;13.584;2023-12-22T01:03:14;13.50;;;2.53;;
23015;SDS011;11674;52.428;13.584;2023-12-22T01:08:21;12.98;;;2.53;;
23015;SDS011;11674;52.428;13.584;2023-12-22T01:13:28;11.55;;;2.35;;
23015;SDS011;11674;52.428;13.584;2023-12-22T01:18:35;12.23;;;2.33;;
23015;SDS011;11674;52.428;13.584;2023-12-22T01:23:42;8.23;;;1.73;;
23015;SDS011;11674;52.428;13.584;2023-12-22T01:28:49;9.73;;;2.08;;
23015;SDS011;11674;52.428;13.584;2023-12-22T01:33:56;12.90;;;2.78;;
23015;SDS011;11674;52.428;13.584;2023-12-22T01:39:03;14.30;;;2.60;;
23015;SDS011;11674;52.428;13.584;2023-12-22T01:44:10;12.25;;;2.85;;
23015;SDS011;11674;52.428;13.584;2023-12-22T01:49:17;8.38;;;2.53;;
23015;SDS011;11674;52.428;13.584;2023-12-22T01:54:24;11.27;;;2.83;;
23015;SDS011;11674;52.428;13.584;2023-12-22T01:59:31;12.25;;;2.53;;
23015;SDS011;11674;52.428;13.584;2023-12-22T02:04:39;14.00;;;2.58;;
23015;SDS011;11674;52.428;13.584;2023-12-22T02:09:46;11.75;;;3.40;;
23015;SDS011;11674;52.428;13.584;2023-12-22T02:14:53;11.70;;;3.10;;
23015;SDS011;11674;52.428;13.584;2023-12-22T02:20:00;17.55;;;3.38;;
23015;SDS011;11674;52.428;13.584;2023-12-22T02:25:07;19.95;;;3.33;;
23015;SDS011;11674;52.428;13.584;2023-12-22T02:30:38;9.88;;;2.72;;
23015;SDS011;11674;52.428;13.584;2023-12-22T02:35:46;16.00;;;2.83;;
23015;SDS011;11674;52.428;13.584;2023-12-22T02:40:55;13.95;;;2.67;;
23015;SDS011;11674;52.428;13.584;2023-12-22T02:46:02;13.15;;;2.70;;
23015;SDS011;11674;52.428;13.584;2023-12-22T02:51:09;14.90;;;4.05;;
23015;SDS011;11674;52.428;13.584;2023-12-22T02:56:16;12.38;;;2.67;;
23015;SDS011;11674;52.428;13.584;2023-12-22T03:01:26;9.02;;;2.20;;
23015;SDS011;11674;52.428;13.584;2023-12-22T03:06:33;11.60;;;2.50;;
23015;SDS011;11674;52.428;13.584;2023-12-22T03:11:40;10.52;;;2.10;;
23015;SDS011;11674;52.428;13.584;2023-12-22T03:16:47;14.38;;;2.13;;
23015;SDS011;11674;52.428;13.584;2023-12-22T03:21:54;10.30;;;2.20;;
23015;SDS011;11674;52.428;13.584;2023-12-22T03:27:01;11.88;;;2.28;;
23015;SDS011;11674;52.428;13.584;2023-12-22T03:32:08;9.90;;;2.20;;
23015;SDS011;11674;52.428;13.584;2023-12-22T03:37:15;13.73;;;2.22;;
23015;SDS011;11674;52.428;13.584;2023-12-22T03:42:22;10.50;;;2.22;;
23015;SDS011;11674;52.428;13.584;2023-12-22T03:47:29;12.30;;;2.63;;
23015;SDS011;11674;52.428;13.584;2023-12-22T03:52:36;12.82;;;2.67;;
23015;SDS011;11674;52.428;13.584;2023-12-22T03:57:43;9.50;;;2.65;;
23015;SDS011;11674;52.428;13.584;2023-12-22T04:02:50;8.32;;;2.65;;
23015;SDS011;11674;52.428;13.584;2023-12-22T04:07:57;7.32;;;1.55;;
23015;SDS011;11674;52.428;13.584;2023-12-22T04:13:04;6.10;;;1.60;;
23015;SDS011;11674;52.428;13.584;2023-12-22T04:18:11;3.95;;;1.42;;
23015;SDS011;11674;52.428;13.584;2023-12-22T04:23:18;7.28;;;1.42;;
23015;SDS011;11674;52.428;13.584;2023-12-22T04:28:25;5.35;;;1.30;;
23015;SDS011;11674;52.428;13.584;2023-12-22T04:33:32;2.90;;;1.40;;
23015;SDS011;11674;52.428;13.584;2023-12-22T04:38:39;4.40;;;1.40;;
23015;SDS011;11674;52.428;13.584;2023-12-22T04:43:48;5.43;;;1.50;;
23015;SDS011;11674;52.428;13.584;2023-12-22T04:48:59;5.07;;;1.23;;
23015;SDS011;11674;52.428;13.584;2023-12-22T04:54:06;6.35;;;1.58;;
23015;SDS011;11674;52.428;13.584;2023-12-22T04:59:13;12.98;;;1.90;;
23015;SDS011;11674;52.428;13.584;2023-12-22T05:04:20;4.45;;;1.40;;
23015;SDS011;11674;52.428;13.584;2023-12-22T05:09:27;6.15;;;1.75;;
23015;SDS011;11674;52.428;13.584;2023-12-22T05:14:37;8.55;;;1.48;;
23015;SDS011;11674;52.428;13.584;2023-12-22T05:19:44;2.67;;;0.90;;
23015;SDS011;11674;52.428;13.584;2023-12-22T05:24:51;4.55;;;1.50;;
23015;SDS011;11674;52.428;13.584;2023-12-22T05:29:58;3.33;;;0.90;;
23015;SDS011;11674;52.428;13.584;2023-12-22T05:35:06;3.60;;;1.00;;
23015;SDS011;11674;52.428;13.584;2023-12-22T05:40:13;3.13;;;0.93;;
23015;SDS011;11674;52.428;13.584;2023-12-22T05:45:20;5.65;;;1.25;;
23015;SDS011;11674;52.428;13.584;2023-12-22T05:50:27;6.25;;;1.48;;
23015;SDS011;11674;52.428;13.584;2023-12-22T05:55:34;4.65;;;1.60;;
23015;SDS011;11674;52.428;13.584;2023-12-22T06:00:41;4.75;;;1.75;;
23015;SDS011;11674;52.428;13.584;2023-12-22T06:05:48;5.43;;;1.48;;
23015;SDS011;11674;52.428;13.584;2023-12-22T06:10:55;8.23;;;2.00;;
23015;SDS011;11674;52.428;13.584;2023-12-22T06:16:03;5.32;;;1.40;;
23015;SDS011;11674;52.428;13.584;2023-12-22T06:21:10;8.25;;;1.85;;
23015;SDS011;11674;52.428;13.584;2023-12-22T06:26:17;8.20;;;1.42;;
23015;SDS011;11674;52.428;13.584;2023-12-22T06:31:24;9.02;;;1.20;;
23015;SDS011;11674;52.428;13.584;2023-12-22T06:36:32;9.80;;;1.08;;
23015;SDS011;11674;52.428;13.584;2023-12-22T06:41:39;4.53;;;1.30;;
23015;SDS011;11674;52.428;13.584;2023-12-22T06:46:46;7.00;;;1.60;;
23015;SDS011;11674;52.428;13.584;2023-12-22T06:51:53;5.30;;;1.65;;
23015;SDS011;11674;52.428;13.584;2023-12-22T06:57:00;3.97;;;1.25;;
23015;SDS011;11674;52.428;13.584;2023-12-22T07:02:07;5.78;;;1.30;;
23015;SDS011;11674;52.428;13.584;2023-12-22T07:07:14;3.67;;;1.08;;
23015;SDS011;11674;52.428;13.584;2023-12-22T07:12:21;4.70;;;1.45;;
23015;SDS011;11674;52.428;13.584;2023-12-22T07:17:28;8.30;;;1.25;;
23015;SDS011;11674;52.428;13.584;2023-12-22T07:22:35;2.28;;;1.05;;
23015;SDS011;11674;52.428;13.584;2023-12-22T07:27:42;6.47;;;1.42;;
23015;SDS011;11674;52.428;13.584;2023-12-22T07:32:49;4.25;;;1.30;;
23015;SDS011;11674;52.428;13.584;2023-12-22T07:37:56;4.20;;;1.13;;
23015;SDS011;11674;52.428;13.584;2023-12-22T07:43:03;7.78;;;1.70;;
23015;SDS011;11674;52.428;13.584;2023-12-22T07:48:17;7.13;;;1.38;;
23015;SDS011;11674;52.428;13.584;2023-12-22T07:53:24;4.70;;;1.15;;
23015;SDS011;11674;52.428;13.584;2023-12-22T07:58:31;9.23;;;1.80;;
23015;SDS011;11674;52.428;13.584;2023-12-22T08:03:38;5.95;;;1.63;;
23015;SDS011;11674;52.428;13.584;2023-12-22T08:08:45;9.90;;;1.70;;
23015;SDS011;11674;52.428;13.584;2023-12-22T08:13:52;4.85;;;1.13;;
23015;SDS011;11674;52.428;13.584;2023-12-22T08:18:59;5.70;;;1.70;;
23015;SDS011;11674;52.428;13.584;2023-12-22T08:24:06;7.10;;;1.48;;
23015;SDS011;11674;52.428;13.584;2023-12-22T08:29:13;4.57;;;0.90;;
23015;SDS011;11674;52.428;13.584;2023-12-22T08:34:20;5.05;;;1.23;;
23015;SDS011;11674;52.428;13.584;2023-12-22T08:39:27;4.30;;;1.50;;
23015;SDS011;11674;52.428;13.584;2023-12-22T08:44:34;9.18;;;1.67;;
23015;SDS011;11674;52.428;13.584;2023-12-22T08:49:41;8.13;;;1.67;;
23015;SDS011;11674;52.428;13.584;2023-12-22T08:54:48;7.13;;;1.55;;
23015;SDS011;11674;52.428;13.584;2023-12-22T08:59:55;8.35;;;1.27;;
23015;SDS011;11674;52.428;13.584;2023-12-22T09:05:02;6.97;;;1.60;;
23015;SDS011;11674;52.428;13.584;2023-12-22T09:10:09;11.02;;;1.52;;
23015;SDS011;11674;52.428;13.584;2023-12-22T09:15:19;8.73;;;1.50;;
23015;SDS011;11674;52.428;13.584;2023-12-22T09:20:25;11.23;;;2.20;;
23015;SDS011;11674;52.428;13.584;2023-12-22T09:25:32;11.25;;;2.15;;
23015;SDS011;11674;52.428;13.584;2023-12-22T09:30:39;8.30;;;2.42;;
23015;SDS011;11674;52.428;13.584;2023-12-22T09:35:46;7.20;;;1.80;;
23015;SDS011;11674;52.428;13.584;2023-12-22T09:40:53;11.00;;;2.58;;
23015;SDS011;11674;52.428;13.584;2023-12-22T09:46:00;15.88;;;2.90;;
23015;SDS011;11674;52.428;13.584;2023-12-22T09:51:09;16.40;;;2.63;;
23015;SDS011;11674;52.428;13.584;2023-12-22T09:56:18;16.55;;;4.18;;
23015;SDS011;11674;52.428;13.584;2023-12-22T10:01:26;15.00;;;5.40;;
23015;SDS011;11674;52.428;13.584;2023-12-22T10:06:34;8.35;;;2.28;;
23015;SDS011;11674;52.428;13.584;2023-12-22T10:11:43;12.70;;;2.95;;
23015;SDS011;11674;52.428;13.584;2023-12-22T10:16:53;11.38;;;2.55;;
23015;SDS011;11674;52.428;13.584;2023-12-22T10:22:02;18.83;;;3.17;;
23015;SDS011;11674;52.428;13.584;2023-12-22T10:27:10;7.72;;;2.28;;
23015;SDS011;11674;52.428;13.584;2023-12-22T10:32:17;19.52;;;3.65;;
23015;SDS011;11674;52.428;13.584;2023-12-22T10:37:24;12.55;;;3.00;;
23015;SDS011;11674;52.428;13.584;2023-12-22T10:42:32;11.95;;;1.90;;
23015;SDS011;11674;52.428;13.584;2023-12-22T10:47:39;11.85;;;2.58;;
23015;SDS011;11674;52.428;13.584;2023-12-22T10:52:58;11.73;;;2.08;;
23015;SDS011;11674;52.428;13.584;2023-12-22T10:58:05;13.40;;;2.47;;
23015;SDS011;11674;52.428;13.584;2023-12-22T11:03:17;16.25;;;2.60;;
23015;SDS011;11674;52.428;13.584;2023-12-22T11:08:24;13.70;;;2.50;;
23015;SDS011;11674;52.428;13.584;2023-12-22T11:13:34;11.63;;;2.08;;
23015;SDS011;11674;52.428;13.584;2023-12-22T11:18:43;14.70;;;2.42;;
23015;SDS011;11674;52.428;13.584;2023-12-22T11:23:55;11.38;;;2.33;;
23015;SDS011;11674;52.428;13.584;2023-12-22T11:29:02;7.70;;;1.63;;
23015;SDS011;11674;52.428;13.584;2023-12-22T11:34:12;6.88;;;2.42;;
23015;SDS011;11674;52.428;13.584;2023-12-22T11:39:23;16.73;;;3.10;;
23015;SDS011;11674;52.428;13.584;2023-12-22T11:44:34;10.75;;;2.17;;
23015;SDS011;11674;52.428;13.584;2023-12-22T11:49:41;6.95;;;1.48;;
23015;SDS011;11674;52.428;13.584;2023-12-22T11:54:49;8.98;;;2.25;;
23015;SDS011;11674;52.428;13.584;2023-12-22T11:59:57;7.68;;;2.10;;
23015;SDS011;11674;52.428;13.584;2023-12-22T12:05:15;9.52;;;2.15;;
23015;SDS011;11674;52.428;13.584;2023-12-22T12:15:41;13.40;;;2.08;;
23015;SDS011;11674;52.428;13.584;2023-12-22T12:20:50;6.80;;;2.20;;
23015;SDS011;11674;52.428;13.584;2023-12-22T12:25:58;9.65;;;1.60;;
23015;SDS011;11674;52.428;13.584;2023-12-22T12:31:28;7.90;;;1.77;;
23015;SDS011;11674;52.428;13.584;2023-12-22T12:36:45;12.60;;;2.40;;
23015;SDS011;11674;52.428;13.584;2023-12-22T12:41:53;12.93;;;2.55;;
23015;SDS011;11674;52.428;13.584;2023-12-22T12:47:10;12.82;;;1.80;;
23015;SDS011;11674;52.428;13.584;2023-12-22T12:52:21;9.63;;;2.15;;
23015;SDS011;11674;52.428;13.584;2023-12-22T12:57:28;9.75;;;2.03;;
23015;SDS011;11674;52.428;13.584;2023-12-22T13:02:36;11.23;;;1.88;;
23015;SDS011;11674;52.428;13.584;2023-12-22T13:12:54;11.65;;;2.63;;
23015;SDS011;11674;52.428;13.584;2023-12-22T13:18:00;11.40;;;2.90;;
23015;SDS011;11674;52.428;13.584;2023-12-22T13:23:07;14.60;;;2.53;;
23015;SDS011;11674;52.428;13.584;2023-12-22T13:28:14;8.95;;;2.22;;
23015;SDS011;11674;52.428;13.584;2023-12-22T13:33:34;11.13;;;2.83;;
23015;SDS011;11674;52.428;13.584;2023-12-22T13:38:47;12.70;;;3.65;;
23015;SDS011;11674;52.428;13.584;2023-12-22T13:43:55;14.03;;;3.20;;
23015;SDS011;11674;52.428;13.584;2023-12-22T13:49:02;9.80;;;2.10;;
23015;SDS011;11674;52.428;13.584;2023-12-22T13:54:11;10.88;;;1.67;;
23015;SDS011;11674;52.428;13.584;2023-12-22T13:59:30;11.20;;;2.05;;
23015;SDS011;11674;52.428;13.584;2023-12-22T14:04:39;15.07;;;2.50;;
23015;SDS011;11674;52.428;13.584;2023-12-22T14:09:48;12.55;;;2.55;;
23015;SDS011;11674;52.428;13.584;2023-12-22T14:14:55;8.93;;;2.03;;
23015;SDS011;11674;52.428;13.584;2023-12-22T14:20:05;11.77;;;2.25;;
23015;SDS011;11674;52.428;13.584;2023-12-22T14:25:12;9.00;;;2.13;;
23015;SDS011;11674;52.428;13.584;2023-12-22T14:30:21;13.02;;;2.90;;
23015;SDS011;11674;52.428;13.584;2023-12-22T14:35:28;9.88;;;2.00;;
23015;SDS011;11674;52.428;13.584;2023-12-22T14:40:38;13.32;;;2.20;;
23015;SDS011;11674;52.428;13.584;2023-12-22T14:45:45;9.07;;;2.22;;
23015;SDS011;11674;52.428;13.584;2023-12-22T14:50:52;7.30;;;2.30;;
23015;SDS011;11674;52.428;13.584;2023-12-22T14:55:59;6.65;;;1.70;;
23015;SDS011;11674;52.428;13.584;2023-12-22T15:01:11;8.30;;;1.95;;
23015;SDS011;11674;52.428;13.584;2023-12-22T15:06:19;9.18;;;1.70;;
23015;SDS011;11674;52.428;13.584;2023-12-22T15:11:26;6.38;;;1.98;;
23015;SDS011;11674;52.428;13.584;2023-12-22T15:16:33;10.63;;;3.13;;
23015;SDS011;11674;52.428;13.584;2023-12-22T15:21:45;12.43;;;2.00;;
23015;SDS011;11674;52.428;13.584;2023-12-22T15:26:55;7.25;;;1.55;;
23015;SDS011;11674;52.428;13.584;2023-12-22T15:32:01;9.07;;;1.75;;
23015;SDS011;11674;52.428;13.584;2023-12-22T15:37:08;9.30;;;1.90;;
23015;SDS011;11674;52.428;13.584;2023-12-22T15:42:15;16.63;;;1.70;;
23015;SDS011;11674;52.428;13.584;2023-12-22T15:47:22;8.95;;;1.95;;
23015;SDS011;11674;52.428;13.584;2023-12-22T15:52:29;11.70;;;2.08;;
23015;SDS011;11674;52.428;13.584;2023-12-22T15:57:36;8.50;;;1.83;;
23015;SDS011;11674;52.428;13.584;2023-12-22T16:02:45;10.68;;;1.90;;
23015;SDS011;11674;52.428;13.584;2023-12-22T16:07:58;9.98;;;1.88;;
23015;SDS011;11674;52.428;13.584;2023-12-22T16:13:10;6.97;;;1.80;;
23015;SDS011;11674;52.428;13.584;2023-12-22T16:18:17;10.35;;;2.00;;
23015;SDS011;11674;52.428;13.584;2023-12-22T16:23:24;11.52;;;2.42;;
23015;SDS011;11674;52.428;13.584;2023-12-22T16:28:31;7.28;;;1.90;;
23015;SDS011;11674;52.428;13.584;2023-12-22T16:33:40;13.60;;;2.38;;
23015;SDS011;11674;52.428;13.584;2023-12-22T16:38:50;6.13;;;1.70;;
23015;SDS011;11674;52.428;13.584;2023-12-22T16:43:56;4.63;;;1.23;;
23015;SDS011;11674;52.428;13.584;2023-12-22T16:49:03;8.07;;;1.95;;
23015;SDS011;11674;52.428;13.584;2023-12-22T16:54:10;6.15;;;1.58;;
23015;SDS011;11674;52.428;13.584;2023-12-22T16:59:19;5.95;;;1.30;;
23015;SDS011;11674;52.428;13.584;2023-12-22T17:04:26;6.72;;;1.42;;
23015;SDS011;11674;52.428;13.584;2023-12-22T17:09:33;3.10;;;1.10;;
23015;SDS011;11674;52.428;13.584;2023-12-22T17:14:40;11.73;;;1.40;;
23015;SDS011;11674;52.428;13.584;2023-12-22T17:19:47;7.72;;;1.60;;
23015;SDS011;11674;52.428;13.584;2023-12-22T17:24:54;4.82;;;1.48;;
23015;SDS011;11674;52.428;13.584;2023-12-22T17:30:01;4.15;;;1.30;;
23015;SDS011;11674;52.428;13.584;2023-12-22T17:35:08;10.63;;;1.75;;
23015;SDS011;11674;52.428;13.584;2023-12-22T17:40:18;10.75;;;2.10;;
23015;SDS011;11674;52.428;13.584;2023-12-22T17:45:27;9.45;;;1.63;;
23015;SDS011;11674;52.428;13.584;2023-12-22T17:50:33;9.88;;;1.80;;
23015;SDS011;11674;52.428;13.584;2023-12-22T17:55:47;8.75;;;1.98;;
23015;SDS011;11674;52.428;13.584;2023-12-22T18:00:54;6.20;;;1.42;;
23015;SDS011;11674;52.428;13.584;2023-12-22T18:06:03;5.93;;;1.70;;
23015;SDS011;11674;52.428;13.584;2023-12-22T18:11:10;5.78;;;1.55;;
23015;SDS011;11674;52.428;13.584;2023-12-22T18:16:18;10.18;;;3.13;;
23015;SDS011;11674;52.428;13.584;2023-12-22T18:21:25;6.50;;;1.63;;
23015;SDS011;11674;52.428;13.584;2023-12-22T18:26:32;6.72;;;1.63;;
23015;SDS011;11674;52.428;13.584;2023-12-22T18:31:39;11.13;;;1.60;;
23015;SDS011;11674;52.428;13.584;2023-12-22T18:36:46;10.18;;;1.80;;
23015;SDS011;11674;52.428;13.584;2023-12-22T18:41:53;9.98;;;2.00;;
23015;SDS011;11674;52.428;13.584;2023-12-22T18:47:00;7.35;;;2.05;;
23015;SDS011;11674;52.428;13.584;2023-12-22T18:52:07;10.02;;;1.90;;
23015;SDS011;11674;52.428;13.584;2023-12-22T18:57:14;11.55;;;1.90;;
23015;SDS011;11674;52.428;13.584;2023-12-22T19:02:21;12.60;;;2.00;;
23015;SDS011;11674;52.428;13.584;2023-12-22T19:07:28;5.22;;;1.55;;
23015;SDS011;11674;52.428;13.584;2023-12-22T19:12:35;6.72;;;1.63;;
23015;SDS011;11674;52.428;13.584;2023-12-22T19:17:42;8.68;;;1.92;;
23015;SDS011;11674;52.428;13.584;2023-12-22T19:22:49;11.38;;;2.25;;
23015;SDS011;11674;52.428;13.584;2023-12-22T19:27:56;12.77;;;2.53;;
23015;SDS011;11674;52.428;13.584;2023-12-22T19:33:03;9.77;;;2.40;;
23015;SDS011;11674;52.428;13.584;2023-12-22T19:38:10;7.47;;;2.30;;
23015;SDS011;11674;52.428;13.584;2023-12-22T19:43:17;11.27;;;2.58;;
23015;SDS011;11674;52.428;13.584;2023-12-22T19:48:24;8.50;;;2.17;;
23015;SDS011;11674;52.428;13.584;2023-12-22T19:53:31;10.63;;;2.50;;
23015;SDS011;11674;52.428;13.584;2023-12-22T19:58:38;9.23;;;2.20;;
23015;SDS011;11674;52.428;13.584;2023-12-22T20:03:45;11.60;;;1.95;;
23015;SDS011;11674;52.428;13.584;2023-12-22T20:08:52;8.70;;;1.70;;
23015;SDS011;11674;52.428;13.584;2023-12-22T20:13:59;18.00;;;7.07;;
23015;SDS011;11674;52.428;13.584;2023-12-22T20:19:06;10.90;;;2.10;;
23015;SDS011;11674;52.428;13.584;2023-12-22T20:24:13;7.30;;;1.73;;
23015;SDS011;11674;52.428;13.584;2023-12-22T20:29:20;4.40;;;1.35;;
23015;SDS011;11674;52.428;13.584;2023-12-22T20:34:28;14.65;;;2.15;;
23015;SDS011;11674;52.428;13.584;2023-12-22T20:39:34;4.97;;;1.45;;
23015;SDS011;11674;52.428;13.584;2023-12-22T20:44:41;3.65;;;1.02;;
23015;SDS011;11674;52.428;13.584;2023-12-22T20:49:52;6.82;;;1.30;;
23015;SDS011;11674;52.428;13.584;2023-12-22T20:54:59;4.63;;;1.23;;
23015;SDS011;11674;52.428;13.584;2023-12-22T21:00:09;2.63;;;1.10;;
23015;SDS011;11674;52.428;13.584;2023-12-22T21:05:16;6.97;;;1.38;;
23015;SDS011;11674;52.428;13.584;2023-12-22T21:10:23;9.18;;;1.35;;
23015;SDS011;11674;52.428;13.584;2023-12-22T21:15:30;3.88;;;1.30;;
23015;SDS011;11674;52.428;13.584;2023-12-22T21:20:37;6.57;;;1.40;;
23015;SDS011;11674;52.428;13.584;2023-12-22T21:25:44;1.83;;;0.90;;
23015;SDS011;11674;52.428;13.584;2023-12-22T21:30:51;9.50;;;1.10;;
23015;SDS011;11674;52.428;13.584;2023-12-22T21:35:58;7.18;;;1.25;;
23015;SDS011;11674;52.428;13.584;2023-12-22T21:41:05;5.88;;;0.80;;
23015;SDS011;11674;52.428;13.584;2023-12-22T21:46:19;3.92;;;0.82;;
23015;SDS011;11674;52.428;13.584;2023-12-22T21:51:29;3.00;;;0.95;;
23015;SDS011;11674;52.428;13.584;2023-12-22T21:56:35;3.80;;;0.85;;
23015;SDS011;11674;52.428;13.584;2023-12-22T22:01:49;3.05;;;0.80;;
23015;SDS011;11674;52.428;13.584;2023-12-22T22:06:56;2.70;;;0.77;;
23015;SDS011;11674;52.428;13.584;2023-12-22T22:12:03;4.47;;;0.77;;
23015;SDS011;11674;52.428;13.584;2023-12-22T22:17:11;2.95;;;0.95;;
23015;SDS011;11674;52.428;13.584;2023-12-22T22:22:17;2.70;;;0.85;;
23015;SDS011;11674;52.428;13.584;2023-12-22T22:27:26;1.67;;;0.75;;
23015;SDS011;11674;52.428;13.584;2023-12-22T22:32:33;1.58;;;1.20;;
23015;SDS011;11674;52.428;13.584;2023-12-22T22:37:51;1.52;;;0.80;;
23015;SDS011;11674;52.428;13.584;2023-12-22T22:42:59;1.17;;;0.88;;
23015;SDS011;11674;52.428;13.584;2023-12-22T22:48:06;2.15;;;0.80;;
23015;SDS011;11674;52.428;13.584;2023-12-22T22:53:22;3.42;;;0.85;;
23015;SDS011;11674;52.428;13.584;2023-12-22T22:58:29;1.95;;;1.10;;
23015;SDS011;11674;52.428;13.584;2023-12-22T23:03:36;1.38;;;0.70;;
23015;SDS011;11674;52.428;13.584;2023-12-22T23:08:43;1.77;;;0.70;;
23015;SDS011;11674;52.428;13.584;2023-12-22T23:13:54;2.92;;;0.65;;
23015;SDS011;11674;52.428;13.584;2023-12-22T23:19:01;4.83;;;0.70;;
23015;SDS011;11674;52.428;13.584;2023-12-22T23:24:08;2.85;;;0.75;;
23015;SDS011;11674;52.428;13.584;2023-12-22T23:29:14;2.08;;;0.85;;
23015;SDS011;11674;52.428;13.584;2023-12-22T23:34:21;1.40;;;0.73;;
23015;SDS011;11674;52.428;13.584;2023-12-22T23:39:29;2.75;;;0.90;;
23015;SDS011;11674;52.428;13.584;2023-12-22T23:44:36;1.33;;;0.80;;
23015;SDS011;11674;52.428;13.584;2023-12-22T23:49:44;1.98;;;0.80;;
23015;SDS011;11674;52.428;13.584;2023-12-22T23:54:52;1.15;;;0.63;;
23015;SDS011;11674;52.428;13.584;2023-12-22T23:59:59;2.45;;;0.70;;
